Time;durP1;ratioP1;P1;durP2;ratioP2;P2;SDS_P1;SDS_P2;PMS_P1;PMS_P2;Temp;Humidity;BMP_temperature;BMP_pressure;BME280_temperature;BME280_humidity;BME280_pressure;Samples;Min_cycle;Max_cycle;Signal;HPM_P1;HPM_P2
2022/11/23 00:20:01;;;;;;;16.17;8.63;;;;;;;;;;6228855;23;20179;-91
2022/11/23 00:23:06;;;;;;;19.70;9.17;;;;;;;;;;6210003;23;20242;-89
2022/11/23 00:26:12;;;;;;;24.07;10.27;;;;;;;;;;6209899;23;20218;-90
2022/11/23 00:29:18;;;;;;;17.73;8.97;;;;;;;;;;6209691;23;20163;-90
2022/11/23 00:32:23;;;;;;;16.43;8.73;;;;;;;;;;6207767;23;20186;-90
2022/11/23 00:35:30;;;;;;;18.07;9.07;;;;;;;;;;6209100;23;20171;-91
2022/11/23 00:38:36;;;;;;;17.17;8.77;;;;;;;;;;6210159;23;20171;-91
2022/11/23 00:41:41;;;;;;;17.67;8.80;;;;;;;;;;6212468;23;20175;-91
2022/11/23 00:44:46;;;;;;;17.90;8.20;;;;;;;;;;6209675;23;20167;-90
2022/11/23 00:47:52;;;;;;;19.63;9.17;;;;;;;;;;6209271;23;20231;-91
2022/11/23 00:51:00;;;;;;;17.10;8.33;;;;;;;;;;6209543;23;20171;-90
2022/11/23 00:54:06;;;;;;;17.03;8.97;;;;;;;;;;6209808;23;20155;-91
2022/11/23 00:57:11;;;;;;;19.13;9.57;;;;;;;;;;6209836;23;20238;-92
2022/11/23 01:00:18;;;;;;;18.97;9.83;;;;;;;;;;6209613;23;20206;-91
2022/11/23 01:03:23;;;;;;;20.73;10.17;;;;;;;;;;6207951;23;20191;-91
2022/11/23 01:06:32;;;;;;;19.90;10.00;;;;;;;;;;6209232;23;20166;-91
2022/11/23 01:09:37;;;;;;;22.70;9.83;;;;;;;;;;6210075;23;20215;-91
2022/11/23 01:12:44;;;;;;;21.00;9.40;;;;;;;;;;6211168;23;20235;-91
2022/11/23 01:15:51;;;;;;;24.80;10.93;;;;;;;;;;6210842;23;20171;-91
2022/11/23 01:19:01;;;;;;;18.30;8.93;;;;;;;;;;6211243;23;20190;-91
2022/11/23 01:22:08;;;;;;;18.53;9.13;;;;;;;;;;6209850;23;20159;-91
2022/11/23 01:25:13;;;;;;;19.60;9.60;;;;;;;;;;6208745;23;20171;-92
2022/11/23 01:28:18;;;;;;;17.70;8.53;;;;;;;;;;6209735;23;20171;-91
2022/11/23 01:31:25;;;;;;;18.37;8.47;;;;;;;;;;6210047;23;20206;-91
2022/11/23 01:34:30;;;;;;;16.93;8.63;;;;;;;;;;6210181;23;20163;-91
2022/11/23 01:37:38;;;;;;;16.13;8.07;;;;;;;;;;6209797;23;20179;-91
2022/11/23 01:40:44;;;;;;;16.20;8.20;;;;;;;;;;6210921;23;20167;-93
2022/11/23 01:43:50;;;;;;;15.13;8.30;;;;;;;;;;6211064;23;20198;-92
2022/11/23 01:46:56;;;;;;;17.20;8.60;;;;;;;;;;6211430;23;20171;-91
2022/11/23 01:50:02;;;;;;;14.83;8.13;;;;;;;;;;6212281;23;20143;-91
2022/11/23 01:53:09;;;;;;;17.93;9.40;;;;;;;;;;6208831;23;20287;-91
2022/11/23 01:56:17;;;;;;;18.97;8.77;;;;;;;;;;6210880;23;20155;-91
2022/11/23 01:59:22;;;;;;;19.63;9.40;;;;;;;;;;6210135;23;20178;-91
2022/11/23 02:02:29;;;;;;;16.27;8.10;;;;;;;;;;6211876;23;20507;-91
2022/11/23 02:05:37;;;;;;;18.93;8.43;;;;;;;;;;6228803;23;20190;-90
2022/11/23 02:08:46;;;;;;;16.93;8.77;;;;;;;;;;6208897;23;20302;-91
2022/11/23 02:11:52;;;;;;;20.27;9.93;;;;;;;;;;6209099;23;20167;-92
2022/11/23 02:14:57;;;;;;;18.47;9.37;;;;;;;;;;6208494;23;20192;-92
2022/11/23 02:18:03;;;;;;;20.43;9.50;;;;;;;;;;6211202;23;20218;-92
2022/11/23 02:21:09;;;;;;;18.93;9.43;;;;;;;;;;6210354;23;20175;-91
2022/11/23 02:24:20;;;;;;;18.43;9.73;;;;;;;;;;6209598;23;20194;-92
2022/11/23 02:27:27;;;;;;;18.70;9.83;;;;;;;;;;6210168;23;20154;-91
2022/11/23 02:30:34;;;;;;;21.63;9.83;;;;;;;;;;6209771;23;20246;-90
2022/11/23 02:33:40;;;;;;;20.47;9.73;;;;;;;;;;6208874;23;20171;-91
2022/11/23 02:36:45;;;;;;;21.43;9.80;;;;;;;;;;6208962;23;20199;-92
2022/11/23 02:39:52;;;;;;;18.27;9.53;;;;;;;;;;6208956;23;20241;-93
2022/11/23 02:42:59;;;;;;;23.87;10.23;;;;;;;;;;6208621;23;20533;-90
2022/11/23 02:46:07;;;;;;;21.07;10.53;;;;;;;;;;6208335;23;20170;-91
2022/11/23 02:49:12;;;;;;;23.33;10.47;;;;;;;;;;6210060;23;20171;-90
2022/11/23 02:52:18;;;;;;;22.97;9.50;;;;;;;;;;6212440;23;20151;-91
2022/11/23 02:55:23;;;;;;;22.10;10.80;;;;;;;;;;6211263;23;20166;-90
2022/11/23 02:58:30;;;;;;;21.67;10.13;;;;;;;;;;6211112;23;20183;-90
2022/11/23 03:01:35;;;;;;;19.67;9.63;;;;;;;;;;6211521;23;20155;-90
2022/11/23 03:04:41;;;;;;;21.67;9.20;;;;;;;;;;6210307;23;20194;-90
2022/11/23 03:07:46;;;;;;;19.57;9.43;;;;;;;;;;6211584;23;20166;-89
2022/11/23 03:10:52;;;;;;;17.83;8.90;;;;;;;;;;6212089;23;20231;-90
2022/11/23 03:13:59;;;;;;;17.27;8.93;;;;;;;;;;6209947;23;20196;-90
2022/11/23 03:17:06;;;;;;;16.40;9.03;;;;;;;;;;6211393;23;20167;-91
2022/11/23 03:20:19;;;;;;;16.87;8.30;;;;;;;;;;6210082;23;20230;-90
2022/11/23 03:23:28;;;;;;;19.40;8.60;;;;;;;;;;6210660;23;20211;-90
2022/11/23 03:26:33;;;;;;;19.10;8.87;;;;;;;;;;6211759;23;20246;-90
2022/11/23 03:29:48;;;;;;;19.13;9.00;;;;;;;;;;6209325;23;20167;-90
2022/11/23 03:32:57;;;;;;;18.60;8.60;;;;;;;;;;6209907;23;20174;-90
2022/11/23 03:36:03;;;;;;;19.87;8.90;;;;;;;;;;6210490;23;20167;-90
2022/11/23 03:39:12;;;;;;;18.57;8.90;;;;;;;;;;6211553;23;20275;-92
2022/11/23 03:42:40;;;;;;;15.77;8.33;;;;;;;;;;6210470;23;20483;-90
2022/11/23 03:45:47;;;;;;;20.00;9.13;;;;;;;;;;6211401;23;20187;-90
2022/11/23 03:48:52;;;;;;;17.60;8.20;;;;;;;;;;6210379;23;20168;-91
2022/11/23 03:51:58;;;;;;;16.40;8.53;;;;;;;;;;6210719;23;20151;-89
2022/11/23 03:55:06;;;;;;;17.63;8.67;;;;;;;;;;6211346;23;20265;-90
2022/11/23 03:58:11;;;;;;;16.37;8.20;;;;;;;;;;6211676;23;20214;-90
2022/11/23 04:01:21;;;;;;;16.20;8.20;;;;;;;;;;6211995;23;20220;-91
2022/11/23 04:04:33;;;;;;;14.90;8.03;;;;;;;;;;6211043;23;20246;-89
2022/11/23 04:07:59;;;;;;;18.47;8.13;;;;;;;;;;6210865;23;20172;-90
2022/11/23 04:11:05;;;;;;;15.57;7.20;;;;;;;;;;6212049;23;20506;-89
2022/11/23 04:14:17;;;;;;;14.47;7.30;;;;;;;;;;6210692;23;20167;-90
2022/11/23 04:17:24;;;;;;;15.30;7.17;;;;;;;;;;6210610;23;20227;-90
2022/11/23 04:20:29;;;;;;;17.10;7.30;;;;;;;;;;6210656;23;20187;-89
2022/11/23 04:23:35;;;;;;;12.80;7.03;;;;;;;;;;6210671;23;20195;-90
2022/11/23 04:26:42;;;;;;;16.97;7.40;;;;;;;;;;6210626;23;20206;-89
2022/11/23 04:29:48;;;;;;;14.73;7.67;;;;;;;;;;6209890;23;20167;-90
2022/11/23 04:32:55;;;;;;;15.50;8.10;;;;;;;;;;6210315;23;20179;-90
2022/11/23 04:36:00;;;;;;;23.23;8.73;;;;;;;;;;6210083;23;20220;-90
2022/11/23 04:39:06;;;;;;;16.80;6.30;;;;;;;;;;6228234;23;20179;-90
2022/11/23 04:42:34;;;;;;;14.77;6.90;;;;;;;;;;6209979;23;20501;-90
2022/11/23 04:45:41;;;;;;;15.07;7.67;;;;;;;;;;6210732;23;20194;-91
2022/11/23 04:48:56;;;;;;;13.80;7.27;;;;;;;;;;6211706;23;20163;-90
2022/11/23 04:52:01;;;;;;;15.10;7.50;;;;;;;;;;6209994;23;20302;-90
2022/11/23 04:55:12;;;;;;;14.43;7.43;;;;;;;;;;6210736;23;20186;-90
2022/11/23 04:58:26;;;;;;;15.10;7.93;;;;;;;;;;6209849;23;20251;-90
2022/11/23 05:01:35;;;;;;;14.93;7.90;;;;;;;;;;6209914;23;20166;-89
2022/11/23 05:05:20;;;;;;;18.50;8.73;;;;;;;;;;6225193;23;20187;-90
2022/11/23 05:08:26;;;;;;;14.57;7.30;;;;;;;;;;6210078;23;20397;-90
2022/11/23 05:11:48;;;;;;;16.00;7.33;;;;;;;;;;6210312;23;20212;-91
2022/11/23 05:14:52;;;;;;;14.90;7.60;;;;;;;;;;6210853;23;20700;-91
2022/11/23 05:18:03;;;;;;;16.50;7.67;;;;;;;;;;6210990;23;20194;-90
2022/11/23 05:21:10;;;;;;;16.03;7.27;;;;;;;;;;6211820;23;20514;-90
2022/11/23 05:24:15;;;;;;;15.00;7.17;;;;;;;;;;6213400;23;20209;-92
2022/11/23 05:27:31;;;;;;;13.67;6.70;;;;;;;;;;6211385;23;20216;-90
2022/11/23 05:30:36;;;;;;;14.37;7.13;;;;;;;;;;6210297;23;20174;-91
2022/11/23 05:33:42;;;;;;;14.57;7.27;;;;;;;;;;6210513;23;20162;-90
2022/11/23 05:36:49;;;;;;;14.17;6.87;;;;;;;;;;6210497;23;20191;-89
2022/11/23 05:39:56;;;;;;;19.40;7.20;;;;;;;;;;6212938;23;20167;-91
2022/11/23 05:43:02;;;;;;;14.80;6.70;;;;;;;;;;6212356;23;20182;-90
2022/11/23 05:46:08;;;;;;;16.90;6.60;;;;;;;;;;6213640;23;20219;-92
2022/11/23 05:49:15;;;;;;;14.30;7.30;;;;;;;;;;6213089;23;20164;-90
2022/11/23 05:52:23;;;;;;;16.93;7.03;;;;;;;;;;6212560;23;20191;-89
2022/11/23 05:55:28;;;;;;;14.83;6.93;;;;;;;;;;6211531;23;20163;-91
2022/11/23 05:58:34;;;;;;;15.53;7.77;;;;;;;;;;6209689;23;20218;-91
2022/11/23 06:01:39;;;;;;;17.20;7.63;;;;;;;;;;6212241;23;20220;-92
2022/11/23 06:04:46;;;;;;;18.70;7.77;;;;;;;;;;6213218;23;20194;-92
2022/11/23 06:07:57;;;;;;;16.07;7.90;;;;;;;;;;6211179;23;20168;-90
2022/11/23 06:15:21;;;;;;;16.67;7.70;;;;;;;;;;6229642;23;20218;-89
2022/11/23 06:18:27;;;;;;;19.17;7.73;;;;;;;;;;6211916;23;20190;-91
2022/11/23 06:21:34;;;;;;;20.43;8.03;;;;;;;;;;6212982;23;20191;-92
2022/11/23 06:24:41;;;;;;;17.47;7.83;;;;;;;;;;6213440;23;20234;-89
2022/11/23 06:28:05;;;;;;;21.90;8.63;;;;;;;;;;6231876;23;20167;-90
2022/11/23 06:31:19;;;;;;;28.47;11.17;;;;;;;;;;6213124;23;20206;-90
2022/11/23 06:34:25;;;;;;;27.47;10.80;;;;;;;;;;6212821;23;20150;-90
2022/11/23 06:37:31;;;;;;;23.50;9.43;;;;;;;;;;6214048;23;20175;-89
2022/11/23 06:40:42;;;;;;;24.13;9.67;;;;;;;;;;6218176;23;20190;-90
2022/11/23 06:43:49;;;;;;;21.70;8.90;;;;;;;;;;6217803;23;20656;-89
2022/11/23 06:47:09;;;;;;;22.43;9.03;;;;;;;;;;6214879;23;20176;-91
2022/11/23 06:50:14;;;;;;;25.37;9.53;;;;;;;;;;6214756;23;20242;-91
2022/11/23 06:53:21;;;;;;;23.97;10.10;;;;;;;;;;6213616;23;20171;-90
2022/11/23 06:56:33;;;;;;;23.13;10.20;;;;;;;;;;6213333;23;20187;-90
2022/11/23 06:59:38;;;;;;;32.53;12.67;;;;;;;;;;6216570;23;20248;-88
2022/11/23 07:02:44;;;;;;;35.60;13.10;;;;;;;;;;6216100;23;20179;-90
2022/11/23 07:05:54;;;;;;;33.37;12.43;;;;;;;;;;6217287;23;20244;-90
2022/11/23 07:09:03;;;;;;;37.73;14.20;;;;;;;;;;6217411;23;20208;-91
2022/11/23 07:12:25;;;;;;;35.20;14.13;;;;;;;;;;6217341;23;20183;-91
2022/11/23 07:15:32;;;;;;;35.37;14.83;;;;;;;;;;6216912;23;20176;-90
2022/11/23 07:18:39;;;;;;;36.20;13.00;;;;;;;;;;6214672;23;20194;-91
2022/11/23 07:21:46;;;;;;;35.23;13.27;;;;;;;;;;6212877;23;20175;-89
2022/11/23 07:24:53;;;;;;;32.47;12.37;;;;;;;;;;6213922;23;20191;-89
2022/11/23 07:28:01;;;;;;;30.87;13.30;;;;;;;;;;6215744;23;20179;-92
2022/11/23 07:31:07;;;;;;;32.60;13.50;;;;;;;;;;6215399;23;20227;-91
2022/11/23 07:34:18;;;;;;;33.23;14.47;;;;;;;;;;6215329;23;20171;-89
2022/11/23 07:37:24;;;;;;;44.00;16.60;;;;;;;;;;6214676;23;20171;-92
2022/11/23 07:40:30;;;;;;;43.30;15.80;;;;;;;;;;6214370;23;20154;-90
2022/11/23 07:43:38;;;;;;;35.70;14.20;;;;;;;;;;6214396;23;20168;-88
2022/11/23 07:46:50;;;;;;;33.50;12.63;;;;;;;;;;6214853;23;20192;-90
2022/11/23 07:49:55;;;;;;;38.13;13.33;;;;;;;;;;6215371;23;20167;-90
2022/11/23 07:53:06;;;;;;;34.50;13.50;;;;;;;;;;6213598;23;20170;-90
2022/11/23 07:59:46;;;;;;;34.23;13.03;;;;;;;;;;6215564;23;20206;-91
2022/11/23 08:02:53;;;;;;;40.90;15.13;;;;;;;;;;6216551;23;20175;-89
2022/11/23 08:05:59;;;;;;;39.97;14.30;;;;;;;;;;6214533;23;20195;-89
2022/11/23 08:09:05;;;;;;;40.13;15.30;;;;;;;;;;6213179;23;20175;-89
2022/11/23 08:12:10;;;;;;;47.60;15.33;;;;;;;;;;6214688;23;20724;-91
2022/11/23 08:15:16;;;;;;;41.37;15.80;;;;;;;;;;6213886;23;20210;-89
2022/11/23 08:18:23;;;;;;;44.50;15.60;;;;;;;;;;6211104;23;20630;-91
2022/11/23 08:21:28;;;;;;;44.77;15.93;;;;;;;;;;6211441;23;20158;-90
2022/11/23 08:24:33;;;;;;;43.63;14.43;;;;;;;;;;6208806;23;20194;-89
2022/11/23 08:27:39;;;;;;;44.23;15.77;;;;;;;;;;6212045;23;20150;-89
2022/11/23 08:30:44;;;;;;;46.30;16.77;;;;;;;;;;6212211;23;20171;-90
2022/11/23 08:33:51;;;;;;;50.10;16.33;;;;;;;;;;6214322;23;20279;-91
2022/11/23 08:36:56;;;;;;;40.90;15.27;;;;;;;;;;6211435;23;20561;-89
2022/11/23 08:40:01;;;;;;;41.50;15.80;;;;;;;;;;6213397;23;20183;-93
2022/11/23 08:43:11;;;;;;;43.80;15.63;;;;;;;;;;6214104;23;20152;-89
2022/11/23 08:46:16;;;;;;;38.67;14.97;;;;;;;;;;6210822;23;20199;-90
2022/11/23 08:49:25;;;;;;;44.27;16.10;;;;;;;;;;6213845;23;20220;-90
2022/11/23 08:52:34;;;;;;;45.50;16.33;;;;;;;;;;6212299;23;20200;-89
2022/11/23 08:55:39;;;;;;;38.93;15.13;;;;;;;;;;6210721;23;20155;-91
2022/11/23 08:58:45;;;;;;;42.40;16.30;;;;;;;;;;6212825;23;20270;-89
2022/11/23 09:01:50;;;;;;;45.67;15.80;;;;;;;;;;6214854;23;20186;-91
2022/11/23 09:04:57;;;;;;;40.53;16.00;;;;;;;;;;6215583;23;20199;-90
2022/11/23 09:08:02;;;;;;;35.17;15.33;;;;;;;;;;6211521;23;20166;-90
2022/11/23 09:11:09;;;;;;;38.40;16.33;;;;;;;;;;6210476;23;20167;-90
2022/11/23 09:14:15;;;;;;;39.83;16.40;;;;;;;;;;6210336;23;20194;-92
2022/11/23 09:17:21;;;;;;;38.47;15.67;;;;;;;;;;6211100;23;20170;-92
2022/11/23 09:20:36;;;;;;;39.97;15.60;;;;;;;;;;6210465;23;20174;-92
2022/11/23 09:23:41;;;;;;;40.13;16.03;;;;;;;;;;6211536;23;20163;-90
2022/11/23 09:26:47;;;;;;;36.93;14.60;;;;;;;;;;6211263;23;20167;-91
2022/11/23 09:29:52;;;;;;;34.60;13.23;;;;;;;;;;6210933;23;20534;-91
2022/11/23 09:32:58;;;;;;;30.67;12.50;;;;;;;;;;6212500;23;20550;-90
2022/11/23 09:36:05;;;;;;;35.63;13.97;;;;;;;;;;6209013;23;20191;-92
2022/11/23 09:39:10;;;;;;;39.00;14.10;;;;;;;;;;6212293;23;20193;-91
2022/11/23 09:42:27;;;;;;;33.50;13.67;;;;;;;;;;6210388;23;20166;-91
2022/11/23 09:45:38;;;;;;;35.60;14.40;;;;;;;;;;6209482;23;20190;-90
2022/11/23 09:48:47;;;;;;;34.37;13.80;;;;;;;;;;6211635;23;20163;-90
2022/11/23 09:51:55;;;;;;;32.83;12.83;;;;;;;;;;6210595;23;20191;-91
2022/11/23 09:55:02;;;;;;;29.10;12.33;;;;;;;;;;6210752;23;20163;-91
2022/11/23 09:58:07;;;;;;;38.07;14.57;;;;;;;;;;6214930;23;20546;-92
2022/11/23 10:01:14;;;;;;;37.07;13.97;;;;;;;;;;6211342;23;20505;-92
2022/11/23 10:04:20;;;;;;;35.57;13.10;;;;;;;;;;6209749;23;20167;-90
2022/11/23 10:07:33;;;;;;;39.67;14.47;;;;;;;;;;6211031;23;20222;-91
2022/11/23 10:10:41;;;;;;;33.77;13.10;;;;;;;;;;6209898;23;20171;-92
2022/11/23 10:13:52;;;;;;;39.07;14.07;;;;;;;;;;6211411;23;20160;-91
2022/11/23 10:17:02;;;;;;;34.80;13.03;;;;;;;;;;6212342;23;20175;-89
2022/11/23 10:20:19;;;;;;;33.30;12.77;;;;;;;;;;6212345;23;20175;-91
2022/11/23 10:23:40;;;;;;;34.53;14.57;;;;;;;;;;6210186;23;20203;-91
2022/11/23 10:26:47;;;;;;;36.90;14.37;;;;;;;;;;6211174;23;20333;-92
2022/11/23 10:29:52;;;;;;;32.90;13.20;;;;;;;;;;6209173;23;20164;-90
2022/11/23 10:33:01;;;;;;;32.90;12.97;;;;;;;;;;6209593;23;20171;-90
2022/11/23 10:36:08;;;;;;;31.83;12.87;;;;;;;;;;6209394;23;20597;-90
2022/11/23 10:39:23;;;;;;;35.83;13.70;;;;;;;;;;6210955;23;20212;-92
2022/11/23 10:42:32;;;;;;;31.17;12.03;;;;;;;;;;6210027;23;20191;-92
2022/11/23 10:45:37;;;;;;;34.07;13.00;;;;;;;;;;6228904;23;20190;-90
2022/11/23 10:48:43;;;;;;;31.60;12.43;;;;;;;;;;6213196;23;20217;-89
2022/11/23 10:51:53;;;;;;;30.92;12.77;;;;;;;;;;6209425;23;20290;-90
2022/11/23 10:54:59;;;;;;;34.65;13.45;;;;;;;;;;6209646;23;20163;-92
2022/11/23 10:58:06;;;;;;;29.50;13.43;;;;;;;;;;6209527;23;20171;-93
2022/11/23 11:01:14;;;;;;;32.55;13.77;;;;;;;;;;6211309;23;20167;-91
2022/11/23 11:04:24;;;;;;;35.17;14.77;;;;;;;;;;6210816;23;20506;-91
2022/11/23 11:07:30;;;;;;;34.30;13.68;;;;;;;;;;6214227;23;20213;-92
2022/11/23 11:10:38;;;;;;;35.42;15.07;;;;;;;;;;6211843;23;20171;-92
2022/11/23 11:13:46;;;;;;;35.10;14.75;;;;;;;;;;6213666;23;20171;-90
2022/11/23 11:16:52;;;;;;;37.97;14.57;;;;;;;;;;6211478;23;20171;-88
2022/11/23 11:19:57;;;;;;;35.95;14.73;;;;;;;;;;6212524;23;20218;-90
2022/11/23 11:23:04;;;;;;;32.72;14.48;;;;;;;;;;6211705;23;20172;-91
2022/11/23 11:26:12;;;;;;;38.38;15.27;;;;;;;;;;6210771;23;20306;-91
2022/11/23 11:29:25;;;;;;;40.90;14.70;;;;;;;;;;6212858;23;20214;-91
2022/11/23 11:32:32;;;;;;;37.75;14.32;;;;;;;;;;6212131;23;20183;-89
2022/11/23 11:35:41;;;;;;;35.88;14.15;;;;;;;;;;6210099;23;20171;-91
2022/11/23 11:38:48;;;;;;;28.45;12.02;;;;;;;;;;6214588;23;20179;-90
2022/11/23 11:41:55;;;;;;;37.15;13.43;;;;;;;;;;6214926;23;20180;-91
2022/11/23 11:45:04;;;;;;;36.97;13.43;;;;;;;;;;6213219;23;20167;-91
2022/11/23 11:48:12;;;;;;;30.05;12.85;;;;;;;;;;6212580;23;20206;-90
2022/11/23 11:51:22;;;;;;;30.88;12.25;;;;;;;;;;6213184;23;20186;-91
2022/11/23 11:54:30;;;;;;;27.92;12.18;;;;;;;;;;6214573;23;20618;-91
2022/11/23 11:57:37;;;;;;;30.63;13.38;;;;;;;;;;6213744;23;20497;-91
2022/11/23 12:00:44;;;;;;;35.85;13.15;;;;;;;;;;6213154;23;20182;-91
2022/11/23 12:07:26;;;;;;;31.88;13.18;;;;;;;;;;6215546;23;20217;-92
2022/11/23 12:10:35;;;;;;;32.67;13.20;;;;;;;;;;6216093;23;20163;-92
2022/11/23 12:13:42;;;;;;;34.67;12.83;;;;;;;;;;6216937;23;20589;-90
2022/11/23 12:16:55;;;;;;;31.48;13.43;;;;;;;;;;6216349;23;20159;-90
2022/11/23 12:20:03;;;;;;;32.38;13.27;;;;;;;;;;6215641;23;20540;-90
2022/11/23 12:23:13;;;;;;;33.28;13.45;;;;;;;;;;6214543;23;20167;-90
2022/11/23 12:26:22;;;;;;;31.50;12.73;;;;;;;;;;6217721;23;20519;-90
2022/11/23 12:29:43;;;;;;;31.67;13.68;;;;;;;;;;6212538;23;20167;-91
2022/11/23 12:32:57;;;;;;;29.25;13.57;;;;;;;;;;6213509;23;20154;-91
2022/11/23 12:36:13;;;;;;;30.00;13.30;;;;;;;;;;6215444;23;20172;-91
2022/11/23 12:39:29;;;;;;;32.40;12.55;;;;;;;;;;6216173;23;20228;-91
2022/11/23 12:42:37;;;;;;;26.98;12.63;;;;;;;;;;6214783;23;20163;-90
2022/11/23 12:45:47;;;;;;;31.15;12.10;;;;;;;;;;6214638;23;20262;-91
2022/11/23 12:49:04;;;;;;;28.35;13.07;;;;;;;;;;6216281;23;20151;-91
2022/11/23 12:52:17;;;;;;;31.25;12.50;;;;;;;;;;6216013;23;20240;-91
2022/11/23 12:55:25;;;;;;;34.03;14.30;;;;;;;;;;6216863;23;20175;-89
2022/11/23 12:58:32;;;;;;;30.87;13.37;;;;;;;;;;6213850;23;20151;-90
2022/11/23 13:01:43;;;;;;;34.22;14.07;;;;;;;;;;6214845;23;20147;-89
2022/11/23 13:05:07;;;;;;;35.08;14.48;;;;;;;;;;6214651;23;20251;-90
2022/11/23 13:08:23;;;;;;;34.90;14.43;;;;;;;;;;6216917;23;20167;-90
2022/11/23 13:11:36;;;;;;;37.70;15.63;;;;;;;;;;6214638;23;20182;-92
2022/11/23 13:14:46;;;;;;;34.90;15.10;;;;;;;;;;6217416;23;20147;-91
2022/11/23 13:17:56;;;;;;;38.22;15.73;;;;;;;;;;6215093;23;20234;-92
2022/11/23 13:21:09;;;;;;;28.88;14.07;;;;;;;;;;6217018;23;20155;-91
2022/11/23 13:24:28;;;;;;;36.05;15.25;;;;;;;;;;6218077;23;20155;-93
2022/11/23 13:27:44;;;;;;;29.25;14.23;;;;;;;;;;6220245;23;20183;-90
2022/11/23 13:31:10;;;;;;;33.97;16.67;;;;;;;;;;6214781;23;20167;-92
2022/11/23 13:34:30;;;;;;;33.50;15.27;;;;;;;;;;6216836;23;20172;-93
2022/11/23 13:37:59;;;;;;;31.73;15.55;;;;;;;;;;6216542;23;20164;-91
2022/11/23 13:41:26;;;;;;;36.03;15.05;;;;;;;;;;6215540;23;20163;-91
2022/11/23 13:44:33;;;;;;;33.78;15.52;;;;;;;;;;6216238;23;20218;-91
2022/11/23 13:48:07;;;;;;;31.48;14.70;;;;;;;;;;6215558;23;20194;-90
2022/11/23 13:51:13;;;;;;;37.35;15.23;;;;;;;;;;6180775;23;20175;-92
2022/11/23 13:54:20;;;;;;;30.63;14.88;;;;;;;;;;6215159;23;20155;-92
2022/11/23 13:57:29;;;;;;;32.40;15.55;;;;;;;;;;6216174;23;20175;-91
2022/11/23 14:00:52;;;;;;;35.38;15.32;;;;;;;;;;6215340;23;20171;-92
2022/11/23 14:03:57;;;;;;;38.55;15.38;;;;;;;;;;6215971;23;20534;-92
2022/11/23 14:07:05;;;;;;;30.13;14.63;;;;;;;;;;6216050;23;20201;-92
2022/11/23 14:10:18;;;;;;;33.38;16.38;;;;;;;;;;6216454;23;20175;-91
2022/11/23 14:13:27;;;;;;;52.67;22.20;;;;;;;;;;6213705;23;20163;-91
2022/11/23 14:16:47;;;;;;;43.70;18.45;;;;;;;;;;6214455;23;20200;-92
2022/11/23 14:20:05;;;;;;;37.58;17.55;;;;;;;;;;6214935;23;20175;-92
2022/11/23 14:23:28;;;;;;;40.63;17.80;;;;;;;;;;6214456;23;20168;-92
2022/11/23 14:26:40;;;;;;;34.78;17.02;;;;;;;;;;6212057;23;20191;-91
2022/11/23 14:30:03;;;;;;;43.10;19.85;;;;;;;;;;6213360;23;20167;-92
2022/11/23 14:33:23;;;;;;;38.65;17.73;;;;;;;;;;6213742;23;20197;-90
2022/11/23 14:36:35;;;;;;;46.53;20.77;;;;;;;;;;6213812;23;20204;-93
2022/11/23 14:39:58;;;;;;;39.67;17.90;;;;;;;;;;6215500;23;20179;-90
2022/11/23 14:43:04;;;;;;;37.95;16.98;;;;;;;;;;6213031;23;20164;-91
2022/11/23 14:46:15;;;;;;;31.33;16.77;;;;;;;;;;6215566;23;20575;-90
2022/11/23 14:49:22;;;;;;;34.67;16.90;;;;;;;;;;6216331;23;20168;-90
2022/11/23 14:52:28;;;;;;;38.17;18.23;;;;;;;;;;6217760;23;20171;-90
2022/11/23 14:55:33;;;;;;;33.55;17.38;;;;;;;;;;6217804;23;20167;-90
2022/11/23 14:58:39;;;;;;;36.42;18.42;;;;;;;;;;6215669;23;20211;-90
2022/11/23 15:01:49;;;;;;;42.90;19.33;;;;;;;;;;6215120;23;20162;-91
2022/11/23 15:08:33;;;;;;;34.92;16.92;;;;;;;;;;6235207;23;20244;-91
2022/11/23 15:11:38;;;;;;;39.03;17.37;;;;;;;;;;6216424;23;20167;-91
2022/11/23 15:14:44;;;;;;;36.03;17.40;;;;;;;;;;6217784;23;20151;-91
2022/11/23 15:17:58;;;;;;;51.53;22.45;;;;;;;;;;6216979;23;20167;-91
2022/11/23 15:21:05;;;;;;;37.10;17.63;;;;;;;;;;6216651;23;20167;-91
2022/11/23 15:24:22;;;;;;;43.37;19.93;;;;;;;;;;6216758;23;20166;-93
2022/11/23 15:27:28;;;;;;;40.30;18.17;;;;;;;;;;6215830;23;20187;-92
2022/11/23 15:30:33;;;;;;;38.80;18.57;;;;;;;;;;6216098;23;20168;-91
2022/11/23 15:33:47;;;;;;;39.60;18.23;;;;;;;;;;6216785;23;20186;-90
2022/11/23 15:36:53;;;;;;;41.73;19.23;;;;;;;;;;6214253;23;20167;-91
2022/11/23 15:39:58;;;;;;;42.77;19.47;;;;;;;;;;6213461;23;20171;-89
2022/11/23 15:43:05;;;;;;;45.57;21.03;;;;;;;;;;6214189;23;20158;-91
2022/11/23 15:46:13;;;;;;;51.03;23.37;;;;;;;;;;6213263;23;20187;-90
2022/11/23 15:49:20;;;;;;;50.30;21.87;;;;;;;;;;6214326;23;20183;-88
2022/11/23 15:52:25;;;;;;;58.93;24.27;;;;;;;;;;6213776;23;20187;-91
2022/11/23 15:55:31;;;;;;;55.70;24.10;;;;;;;;;;6212933;23;20171;-91
2022/11/23 15:58:37;;;;;;;52.40;23.80;;;;;;;;;;6212533;23;20175;-90
2022/11/23 16:01:44;;;;;;;57.40;25.93;;;;;;;;;;6220210;23;20178;-91
2022/11/23 16:05:04;;;;;;;53.47;21.47;;;;;;;;;;6219430;23;20163;-90
2022/11/23 16:08:23;;;;;;;45.93;20.93;;;;;;;;;;6215664;23;20203;-92
2022/11/23 16:11:30;;;;;;;50.93;22.57;;;;;;;;;;6215037;23;20154;-91
2022/11/23 16:14:35;;;;;;;51.53;21.60;;;;;;;;;;6215090;23;20232;-92
2022/11/23 16:17:44;;;;;;;58.83;25.13;;;;;;;;;;6217307;23;20162;-93
2022/11/23 16:20:55;;;;;;;68.97;29.67;;;;;;;;;;6185542;23;20180;-91
2022/11/23 16:24:01;;;;;;;63.77;25.03;;;;;;;;;;6185590;23;20235;-92
2022/11/23 16:30:36;;;;;;;49.57;22.10;;;;;;;;;;6186826;23;20164;-92
2022/11/23 16:33:50;;;;;;;48.40;20.80;;;;;;;;;;6184832;23;20561;-90
2022/11/23 16:36:58;;;;;;;57.40;23.67;;;;;;;;;;6185442;23;20200;-92
2022/11/23 16:40:03;;;;;;;57.47;24.60;;;;;;;;;;6186565;23;20168;-90
2022/11/23 16:43:16;;;;;;;58.97;27.17;;;;;;;;;;6186977;23;20171;-92
2022/11/23 16:46:22;;;;;;;54.27;25.20;;;;;;;;;;6184150;23;20168;-92
2022/11/23 16:49:27;;;;;;;52.47;25.00;;;;;;;;;;6183963;23;20239;-92
2022/11/23 16:52:34;;;;;;;50.17;24.03;;;;;;;;;;6181624;23;20259;-91
2022/11/23 16:55:39;;;;;;;46.70;20.87;;;;;;;;;;6182481;23;20619;-90
2022/11/23 16:58:45;;;;;;;45.50;21.97;;;;;;;;;;6181116;23;20168;-90
2022/11/23 17:01:51;;;;;;;47.80;22.17;;;;;;;;;;6185134;23;20175;-90
2022/11/23 17:08:17;;;;;;;51.90;21.70;;;;;;;;;;6182617;23;20215;-90
2022/11/23 17:11:28;;;;;;;48.40;20.87;;;;;;;;;;6184650;23;20229;-89
2022/11/23 17:14:39;;;;;;;53.00;21.57;;;;;;;;;;6183682;23;20207;-90
2022/11/23 17:17:44;;;;;;;46.93;20.90;;;;;;;;;;6184284;23;20176;-91
2022/11/23 17:20:49;;;;;;;50.67;21.77;;;;;;;;;;6185146;23;20168;-92
2022/11/23 17:23:56;;;;;;;47.13;19.80;;;;;;;;;;6181948;23;20176;-91
2022/11/23 17:27:01;;;;;;;45.13;19.17;;;;;;;;;;6181280;23;20194;-90
2022/11/23 17:30:11;;;;;;;45.33;21.00;;;;;;;;;;6185142;23;20171;-91
2022/11/23 17:33:16;;;;;;;42.33;19.43;;;;;;;;;;6185343;23;20168;-92
2022/11/23 17:36:21;;;;;;;51.00;20.03;;;;;;;;;;6184406;23;20280;-92
2022/11/23 17:39:28;;;;;;;54.43;22.23;;;;;;;;;;6182171;23;20164;-90
2022/11/23 17:42:34;;;;;;;59.47;23.13;;;;;;;;;;6182751;23;20171;-92
2022/11/23 17:45:39;;;;;;;62.57;23.63;;;;;;;;;;6182129;23;20171;-89
2022/11/23 17:48:45;;;;;;;66.50;22.70;;;;;;;;;;6183554;23;20152;-91
2022/11/23 17:51:52;;;;;;;55.40;20.50;;;;;;;;;;6181767;23;20214;-89
2022/11/23 17:54:59;;;;;;;67.73;22.13;;;;;;;;;;6181103;23;20167;-91
2022/11/23 17:58:05;;;;;;;109.47;24.53;;;;;;;;;;6180853;23;20175;-90
2022/11/23 18:01:16;;;;;;;75.43;23.43;;;;;;;;;;6179398;23;20200;-90
2022/11/23 18:04:22;;;;;;;91.87;20.27;;;;;;;;;;6184636;23;20204;-90
2022/11/23 18:07:27;;;;;;;72.87;21.43;;;;;;;;;;6183343;23;20195;-90
2022/11/23 18:10:34;;;;;;;101.43;27.73;;;;;;;;;;6184264;23;20195;-90
2022/11/23 18:13:41;;;;;;;66.87;20.17;;;;;;;;;;6183813;23;20180;-90
2022/11/23 18:16:46;;;;;;;84.47;20.87;;;;;;;;;;6183569;23;20164;-92
2022/11/23 18:19:52;;;;;;;66.10;22.27;;;;;;;;;;6185941;23;20171;-91
2022/11/23 18:23:06;;;;;;;66.10;22.00;;;;;;;;;;6186693;23;20168;-91
2022/11/23 18:26:20;;;;;;;55.30;19.67;;;;;;;;;;6186605;23;20172;-91
2022/11/23 18:29:26;;;;;;;71.60;24.47;;;;;;;;;;6184954;23;20168;-88
2022/11/23 18:32:32;;;;;;;53.83;21.83;;;;;;;;;;6185326;23;20176;-89
2022/11/23 18:35:38;;;;;;;51.53;19.70;;;;;;;;;;6187433;23;20164;-91
2022/11/23 18:38:44;;;;;;;44.53;18.50;;;;;;;;;;6185816;23;20175;-90
2022/11/23 18:41:52;;;;;;;43.03;18.40;;;;;;;;;;6185926;23;20167;-91
2022/11/23 18:44:57;;;;;;;48.73;21.17;;;;;;;;;;6184906;23;20168;-91
2022/11/23 18:48:31;;;;;;;47.60;20.67;;;;;;;;;;6185203;23;20200;-90
2022/11/23 18:51:37;;;;;;;47.53;19.53;;;;;;;;;;6185947;23;20243;-91
2022/11/23 18:54:42;;;;;;;44.70;18.57;;;;;;;;;;6186617;23;20183;-92
2022/11/23 18:57:49;;;;;;;49.27;21.10;;;;;;;;;;6185384;23;20240;-90
2022/11/23 19:00:56;;;;;;;53.53;19.33;;;;;;;;;;6204041;23;20495;-93
2022/11/23 19:04:01;;;;;;;39.13;17.23;;;;;;;;;;6186194;23;20168;-87